Black Watch — C6RS5 — position and weather

sailwx.info

Track history (hours):
 
Tides and Currents Weather Stations Pressure Air Temp Water Temp Dewpoint Dewpoint Depression Visibility Wind Speed Wind Dir Waves Ship Positions

Black Watch

Last reported at 2017-May-23 01:29 UTC. Time now 2017-May-23 04:54 UTC.
Position N 36°09' W 004°58'.

Length 205 m; draft 7.5 m.

Type: Passenger vessel. MMSI: 311166000.

Date/timePositionNaut miles runAvg speedWind from/ knotsBaromVisibWave heightAir tempDewpointWater temp
2017-May-23 01:29N 36°09' W 004°58'713.8
2017-May-23 00:58N 36°06' W 005°06'613.4
2017-May-23 00:30N 36°02' W 005°12'714.9
2017-May-23 00:00N 35°60' W 005°20'714.9
2017-May-22 23:30N 35°57' W 005°29'2912.3
2017-May-22 21:08N 35°53' W 006°05'412.3
2017-May-22 20:50N 35°53' W 006°10'16813.2
2017-May-22 08:07N 36°43' W 009°29'313.7
2017-May-22 07:55N 36°45' W 009°32'2813.7
2017-May-22 05:52N 37°12' W 009°40'612.9
2017-May-22 05:26N 37°17' W 009°41'713.8
2017-May-22 04:54N 37°25' W 009°43'3813.9
2017-May-22 02:10N 38°02' W 009°54'214.1
2017-May-22 01:59N 38°04' W 009°55'1414.1
2017-May-22 01:01N 38°17' W 009°59'613.8
2017-May-22 00:36N 38°23' W 010°01'213.7
2017-May-22 00:29N 38°25' W 010°01'713.9
2017-May-22 00:01N 38°31' W 010°03'714.3
2017-May-21 23:30N 38°38' W 010°05'713.7
2017-May-21 23:00N 38°45' W 010°06'713.9
2017-May-21 22:30N 38°52' W 010°06'713.9
2017-May-21 22:01N 38°59' W 010°06'714.0
2017-May-21 21:30N 39°06' W 010°06'713.8
2017-May-21 21:00N 39°13' W 010°06'714.4
2017-May-21 20:30N 39°20' W 010°06'714.3
2017-May-21 20:00N 39°27' W 010°07'714.0
2017-May-21 19:30N 39°34' W 010°07'814.0
2017-May-21 18:57N 39°42' W 010°06'614.0
2017-May-21 18:30N 39°48' W 010°06'65215.9
2017-May-20 01:27N 49°42' W 003°48'716.7
2017-May-20 01:00N 49°46' W 003°38'816.6
2017-May-20 00:31N 49°50' W 003°27'816.7
2017-May-20 00:01N 49°55' W 003°16'816.9
2017-May-19 23:31N 49°58' W 003°04'917.1
2017-May-19 23:00N 50°01' W 002°52'917.3
2017-May-19 22:31N 50°03' W 002°39'1217.7
2017-May-19 21:48N 50°08' W 002°21'3918.6
2017-May-19 19:42N 50°27' W 001°27'418.8
2017-May-19 19:30N 50°28' W 001°22'919.0
2017-May-19 19:00N 50°32' W 001°08'816.7
2017-May-19 18:30N 50°38' W 000°59'3 6.9
2017-May-19 18:01N 50°42' W 000°58'4 8.0
2017-May-19 17:30N 50°44' W 001°03'612.8
2017-May-19 17:00N 50°46' W 001°13'510.0
2017-May-19 16:30N 50°49' W 001°18'510.8
2017-May-19 16:00N 50°53' W 001°24'1 1.5
2017-May-19 15:20N 50°54' W 001°25'0 0.0
2017-May-19 14:59N 50°54' W 001°25'0 0.0
2017-May-19 13:59N 50°54' W 001°25'0 0.0
2017-May-19 13:29N 50°54' W 001°25'0 0.0
2017-May-19 12:50N 50°54' W 001°25'0 0.0
2017-May-19 12:29N 50°54' W 001°25'0 0.0
2017-May-19 11:59N 50°54' W 001°25'0 0.0
2017-May-19 11:29N 50°54' W 001°25'0 0.0
2017-May-19 10:59N 50°54' W 001°25'0 0.0
2017-May-19 10:29N 50°54' W 001°25'0 0.0
2017-May-19 09:26N 50°54' W 001°25'0 0.0
2017-May-19 08:56N 50°54' W 001°25'0 0.0
2017-May-19 08:20N 50°54' W 001°25'0 0.0
2017-May-19 07:56N 50°54' W 001°25'0 0.0
2017-May-19 07:26N 50°54' W 001°25'0 0.0
2017-May-19 06:56N 50°54' W 001°25'0 0.0
2017-May-19 06:20N 50°54' W 001°25'0 0.0
2017-May-19 05:56N 50°54' W 001°25'0 0.0
2017-May-19 05:26N 50°54' W 001°25'0 0.0
2017-May-19 04:56N 50°54' W 001°25'0 0.0
2017-May-19 04:28N 50°54' W 001°25'2 3.6
2017-May-19 04:00N 50°53' W 001°24'5 9.2
2017-May-19 03:30N 50°50' W 001°18'4 7.3
2017-May-19 03:00N 50°46' W 001°16'714.6
2017-May-19 02:30N 50°44' W 001°05'713.2
2017-May-19 02:00N 50°39' W 000°59'612.7
2017-May-19 01:30N 50°33' W 001°02'815.7
2017-May-19 01:00N 50°30' W 001°13'6614.2
2017-May-18 20:21N 50°13' W 002°54'412.7
2017-May-18 20:00N 50°11' W 002°60'612.5
2017-May-18 19:30N 50°08' W 003°08'612.5
2017-May-18 19:00N 50°04' W 003°15'612.5
2017-May-18 18:30N 49°60' W 003°23'612.5
2017-May-18 18:00N 49°55' W 003°30'612.6
2017-May-18 17:30N 49°51' W 003°37'612.6
2017-May-18 17:00N 49°47' W 003°45'7212.7
2017-May-18 11:21N 49°01' W 005°10'1313.4
2017-May-18 10:22N 48°53' W 005°25'513.6
2017-May-18 10:00N 48°49' W 005°31'1413.5
2017-May-18 08:58N 48°38' W 005°43'1614.0
2017-May-18 07:48N 48°23' W 005°54'1714.2
2017-May-18 06:38N 48°09' W 006°06'44715.7
2017-May-17 02:07N 41°11' W 009°49'217.4
2017-May-17 02:00N 41°09' W 009°49'917.3
2017-May-17 01:28N 40°59' W 009°49'1017.7
2017-May-17 00:53N 40°49' W 009°49'817.8
2017-May-17 00:26N 40°41' W 009°49'1017.7
2017-May-16 23:53N 40°31' W 009°49'717.4
2017-May-16 23:30N 40°25' W 009°48'917.5
2017-May-16 23:01N 40°16' W 009°48'917.5
2017-May-16 22:30N 40°07' W 009°49'917.4
2017-May-16 22:01N 39°59' W 009°50'917.5
2017-May-16 21:30N 39°50' W 009°50'917.5
2017-May-16 21:00N 39°41' W 009°51'917.4
2017-May-16 20:30N 39°32' W 009°50'917.6
2017-May-16 20:00N 39°24' W 009°50'917.5
2017-May-16 19:31N 39°15' W 009°51'917.5
2017-May-16 19:01N 39°06' W 009°51'917.2
2017-May-16 18:30N 38°58' W 009°51'917.3
2017-May-16 18:01N 38°49' W 009°50'817.0
2017-May-16 17:31N 38°40' W 009°50'816.0
2017-May-16 17:00N 38°37' W 009°41'917.5
2017-May-16 16:30N 38°36' W 009°30'815.9
2017-May-16 16:01N 38°39' W 009°20'713.3
2017-May-16 15:30N 38°41' W 009°12'4 8.6
2017-May-16 15:01N 38°43' W 009°07'0 0.2
2017-May-16 14:28N 38°43' W 009°07'0 0.0
2017-May-16 13:25N 38°43' W 009°07'0 0.0
2017-May-16 12:58N 38°43' W 009°07'0 0.0
2017-May-16 12:28N 38°43' W 009°07'0 0.0
2017-May-16 11:58N 38°43' W 009°07'0 0.0
2017-May-16 11:28N 38°43' W 009°07'0 0.0
2017-May-16 10:58N 38°43' W 009°07'0 0.0
2017-May-16 10:28N 38°43' W 009°07'0 0.0
2017-May-16 09:55N 38°43' W 009°07'0 0.0
2017-May-16 09:25N 38°43' W 009°07'0 0.0
2017-May-16 08:58N 38°43' W 009°07'0 0.0
2017-May-16 08:28N 38°43' W 009°07'0 0.0
2017-May-16 07:58N 38°43' W 009°07'0 0.0
2017-May-16 07:28N 38°43' W 009°07'0 0.0
2017-May-16 06:58N 38°43' W 009°07'1 1.6
2017-May-16 06:30N 38°42' W 009°08'510.3
2017-May-16 06:00N 38°41' W 009°14'611.5
2017-May-16 05:30N 38°38' W 009°21'713.1
2017-May-16 05:01N 38°33' W 009°26'714.6
2017-May-16 04:31N 38°26' W 009°25'714.3
2017-May-16 04:00N 38°19' W 009°25'815.5
2017-May-16 03:30N 38°11' W 009°25'815.6
2017-May-16 03:00N 38°03' W 009°24'816.1
2017-May-16 02:30N 37°55' W 009°24'917.6
2017-May-16 02:01N 37°46' W 009°23'816.7
2017-May-16 01:31N 37°38' W 009°23'713.0
2017-May-16 01:00N 37°32' W 009°22'713.1
2017-May-16 00:31N 37°25' W 009°22'612.8
2017-May-16 00:00N 37°19' W 009°22'612.7
2017-May-15 23:31N 37°12' W 009°21'712.6
2017-May-15 22:59N 37°06' W 009°21'912.6
2017-May-15 22:14N 36°57' W 009°20'312.7
2017-May-15 22:00N 36°54' W 009°18'612.7
2017-May-15 21:30N 36°49' W 009°13'612.4
2017-May-15 21:01N 36°45' W 009°08'713.1
2017-May-15 20:30N 36°43' W 008°60'613.0
2017-May-15 20:00N 36°41' W 008°52'713.0
2017-May-15 19:26N 36°38' W 008°43'613.1
2017-May-15 19:00N 36°36' W 008°37'612.9
2017-May-15 18:30N 36°34' W 008°29'1012.9
2017-May-15 17:43N 36°31' W 008°17'413.3
2017-May-15 17:25N 36°30' W 008°12'1913.7
2017-May-15 16:01N 36°24' W 007°50'013.8
2017-May-15 15:59N 36°24' W 007°49'713.8
2017-May-15 15:31N 36°22' W 007°41'30713.8
2017-May-14 17:16N 37°11' W 001°23'517.4
2017-May-14 17:00N 37°15' W 001°20'24 1.8
2017-May-14 03:46N 37°32' W 000°60'415.3
2017-May-14 03:30N 37°29' W 000°56'817.1
2017-May-14 03:00N 37°29' W 000°46'915.4
2017-May-14 02:24N 37°29' W 000°34'513.3
2017-May-14 02:00N 37°30' W 000°27'1013.5
2017-May-14 01:16N 37°31' W 000°15'17213.4
2017-May-13 12:21N 37°59' E 003°20'613.5
2017-May-13 11:57N 38°00' E 003°27'613.4
2017-May-13 11:30N 38°01' E 003°35'713.4
2017-May-13 11:00N 38°02' E 003°43'713.3
2017-May-13 10:30N 38°03' E 003°51'  
Track history (hours):
 
Tides and Currents Weather Stations Pressure Air Temp Water Temp Dewpoint Dewpoint Depression Visibility Wind Speed Wind Dir Waves Ship Positions

Black Watch

Last reported at 2017-May-23 01:29 UTC. Time now 2017-May-23 04:54 UTC.
Position N 36°09' W 004°58'.

Length 205 m; draft 7.5 m.

Type: Passenger vessel. MMSI: 311166000.

Date/timePositionNaut miles runAvg speedWind from/ knotsBaromVisibWave heightAir tempDewpointWater temp
2017-May-23 01:29N 36°09' W 004°58'713.8
2017-May-23 00:58N 36°06' W 005°06'613.4
2017-May-23 00:30N 36°02' W 005°12'714.9
2017-May-23 00:00N 35°60' W 005°20'714.9
2017-May-22 23:30N 35°57' W 005°29'2912.3
2017-May-22 21:08N 35°53' W 006°05'412.3
2017-May-22 20:50N 35°53' W 006°10'16813.2
2017-May-22 08:07N 36°43' W 009°29'313.7
2017-May-22 07:55N 36°45' W 009°32'2813.7
2017-May-22 05:52N 37°12' W 009°40'612.9
2017-May-22 05:26N 37°17' W 009°41'713.8
2017-May-22 04:54N 37°25' W 009°43'3813.9
2017-May-22 02:10N 38°02' W 009°54'214.1
2017-May-22 01:59N 38°04' W 009°55'1414.1
2017-May-22 01:01N 38°17' W 009°59'613.8
2017-May-22 00:36N 38°23' W 010°01'213.7
2017-May-22 00:29N 38°25' W 010°01'713.9
2017-May-22 00:01N 38°31' W 010°03'714.3
2017-May-21 23:30N 38°38' W 010°05'713.7
2017-May-21 23:00N 38°45' W 010°06'713.9
2017-May-21 22:30N 38°52' W 010°06'713.9
2017-May-21 22:01N 38°59' W 010°06'714.0
2017-May-21 21:30N 39°06' W 010°06'713.8
2017-May-21 21:00N 39°13' W 010°06'714.4
2017-May-21 20:30N 39°20' W 010°06'714.3
2017-May-21 20:00N 39°27' W 010°07'714.0
2017-May-21 19:30N 39°34' W 010°07'814.0
2017-May-21 18:57N 39°42' W 010°06'614.0
2017-May-21 18:30N 39°48' W 010°06'65215.9
2017-May-20 01:27N 49°42' W 003°48'716.7
2017-May-20 01:00N 49°46' W 003°38'816.6
2017-May-20 00:31N 49°50' W 003°27'816.7
2017-May-20 00:01N 49°55' W 003°16'816.9
2017-May-19 23:31N 49°58' W 003°04'917.1
2017-May-19 23:00N 50°01' W 002°52'917.3
2017-May-19 22:31N 50°03' W 002°39'1217.7
2017-May-19 21:48N 50°08' W 002°21'3918.6
2017-May-19 19:42N 50°27' W 001°27'418.8
2017-May-19 19:30N 50°28' W 001°22'919.0
2017-May-19 19:00N 50°32' W 001°08'816.7
2017-May-19 18:30N 50°38' W 000°59'3 6.9
2017-May-19 18:01N 50°42' W 000°58'4 8.0
2017-May-19 17:30N 50°44' W 001°03'612.8
2017-May-19 17:00N 50°46' W 001°13'510.0
2017-May-19 16:30N 50°49' W 001°18'510.8
2017-May-19 16:00N 50°53' W 001°24'1 1.5
2017-May-19 15:20N 50°54' W 001°25'0 0.0
2017-May-19 14:59N 50°54' W 001°25'0 0.0
2017-May-19 13:59N 50°54' W 001°25'0 0.0
2017-May-19 13:29N 50°54' W 001°25'0 0.0
2017-May-19 12:50N 50°54' W 001°25'0 0.0
2017-May-19 12:29N 50°54' W 001°25'0 0.0
2017-May-19 11:59N 50°54' W 001°25'0 0.0
2017-May-19 11:29N 50°54' W 001°25'0 0.0
2017-May-19 10:59N 50°54' W 001°25'0 0.0
2017-May-19 10:29N 50°54' W 001°25'0 0.0
2017-May-19 09:26N 50°54' W 001°25'0 0.0
2017-May-19 08:56N 50°54' W 001°25'0 0.0
2017-May-19 08:20N 50°54' W 001°25'0 0.0
2017-May-19 07:56N 50°54' W 001°25'0 0.0
2017-May-19 07:26N 50°54' W 001°25'0 0.0
2017-May-19 06:56N 50°54' W 001°25'0 0.0
2017-May-19 06:20N 50°54' W 001°25'0 0.0
2017-May-19 05:56N 50°54' W 001°25'0 0.0
2017-May-19 05:26N 50°54' W 001°25'0 0.0
2017-May-19 04:56N 50°54' W 001°25'0 0.0
2017-May-19 04:28N 50°54' W 001°25'2 3.6
2017-May-19 04:00N 50°53' W 001°24'5 9.2
2017-May-19 03:30N 50°50' W 001°18'4 7.3
2017-May-19 03:00N 50°46' W 001°16'714.6
2017-May-19 02:30N 50°44' W 001°05'713.2
2017-May-19 02:00N 50°39' W 000°59'612.7
2017-May-19 01:30N 50°33' W 001°02'815.7
2017-May-19 01:00N 50°30' W 001°13'6614.2
2017-May-18 20:21N 50°13' W 002°54'412.7
2017-May-18 20:00N 50°11' W 002°60'612.5
2017-May-18 19:30N 50°08' W 003°08'612.5
2017-May-18 19:00N 50°04' W 003°15'612.5
2017-May-18 18:30N 49°60' W 003°23'612.5
2017-May-18 18:00N 49°55' W 003°30'612.6
2017-May-18 17:30N 49°51' W 003°37'612.6
2017-May-18 17:00N 49°47' W 003°45'7212.7
2017-May-18 11:21N 49°01' W 005°10'1313.4
2017-May-18 10:22N 48°53' W 005°25'513.6
2017-May-18 10:00N 48°49' W 005°31'1413.5
2017-May-18 08:58N 48°38' W 005°43'1614.0
2017-May-18 07:48N 48°23' W 005°54'1714.2
2017-May-18 06:38N 48°09' W 006°06'44715.7
2017-May-17 02:07N 41°11' W 009°49'217.4
2017-May-17 02:00N 41°09' W 009°49'917.3
2017-May-17 01:28N 40°59' W 009°49'1017.7
2017-May-17 00:53N 40°49' W 009°49'817.8
2017-May-17 00:26N 40°41' W 009°49'1017.7
2017-May-16 23:53N 40°31' W 009°49'717.4
2017-May-16 23:30N 40°25' W 009°48'917.5
2017-May-16 23:01N 40°16' W 009°48'917.5
2017-May-16 22:30N 40°07' W 009°49'917.4
2017-May-16 22:01N 39°59' W 009°50'917.5
2017-May-16 21:30N 39°50' W 009°50'917.5
2017-May-16 21:00N 39°41' W 009°51'917.4
2017-May-16 20:30N 39°32' W 009°50'917.6
2017-May-16 20:00N 39°24' W 009°50'917.5
2017-May-16 19:31N 39°15' W 009°51'917.5
2017-May-16 19:01N 39°06' W 009°51'917.2
2017-May-16 18:30N 38°58' W 009°51'917.3
2017-May-16 18:01N 38°49' W 009°50'817.0
2017-May-16 17:31N 38°40' W 009°50'816.0
2017-May-16 17:00N 38°37' W 009°41'917.5
2017-May-16 16:30N 38°36' W 009°30'815.9
2017-May-16 16:01N 38°39' W 009°20'713.3
2017-May-16 15:30N 38°41' W 009°12'4 8.6
2017-May-16 15:01N 38°43' W 009°07'0 0.2
2017-May-16 14:28N 38°43' W 009°07'0 0.0
2017-May-16 13:25N 38°43' W 009°07'0 0.0
2017-May-16 12:58N 38°43' W 009°07'0 0.0
2017-May-16 12:28N 38°43' W 009°07'0 0.0
2017-May-16 11:58N 38°43' W 009°07'0 0.0
2017-May-16 11:28N 38°43' W 009°07'0 0.0
2017-May-16 10:58N 38°43' W 009°07'0 0.0
2017-May-16 10:28N 38°43' W 009°07'0 0.0
2017-May-16 09:55N 38°43' W 009°07'0 0.0
2017-May-16 09:25N 38°43' W 009°07'0 0.0
2017-May-16 08:58N 38°43' W 009°07'0 0.0
2017-May-16 08:28N 38°43' W 009°07'0 0.0
2017-May-16 07:58N 38°43' W 009°07'0 0.0
2017-May-16 07:28N 38°43' W 009°07'0 0.0
2017-May-16 06:58N 38°43' W 009°07'1 1.6
2017-May-16 06:30N 38°42' W 009°08'510.3
2017-May-16 06:00N 38°41' W 009°14'611.5
2017-May-16 05:30N 38°38' W 009°21'713.1
2017-May-16 05:01N 38°33' W 009°26'714.6
2017-May-16 04:31N 38°26' W 009°25'714.3
2017-May-16 04:00N 38°19' W 009°25'815.5
2017-May-16 03:30N 38°11' W 009°25'815.6
2017-May-16 03:00N 38°03' W 009°24'816.1
2017-May-16 02:30N 37°55' W 009°24'917.6
2017-May-16 02:01N 37°46' W 009°23'816.7
2017-May-16 01:31N 37°38' W 009°23'713.0
2017-May-16 01:00N 37°32' W 009°22'713.1
2017-May-16 00:31N 37°25' W 009°22'612.8
2017-May-16 00:00N 37°19' W 009°22'612.7
2017-May-15 23:31N 37°12' W 009°21'712.6
2017-May-15 22:59N 37°06' W 009°21'912.6
2017-May-15 22:14N 36°57' W 009°20'312.7
2017-May-15 22:00N 36°54' W 009°18'612.7
2017-May-15 21:30N 36°49' W 009°13'612.4
2017-May-15 21:01N 36°45' W 009°08'713.1
2017-May-15 20:30N 36°43' W 008°60'613.0
2017-May-15 20:00N 36°41' W 008°52'713.0
2017-May-15 19:26N 36°38' W 008°43'613.1
2017-May-15 19:00N 36°36' W 008°37'612.9
2017-May-15 18:30N 36°34' W 008°29'1012.9
2017-May-15 17:43N 36°31' W 008°17'413.3
2017-May-15 17:25N 36°30' W 008°12'1913.7
2017-May-15 16:01N 36°24' W 007°50'013.8
2017-May-15 15:59N 36°24' W 007°49'713.8
2017-May-15 15:31N 36°22' W 007°41'30713.8
2017-May-14 17:16N 37°11' W 001°23'517.4
2017-May-14 17:00N 37°15' W 001°20'24 1.8
2017-May-14 03:46N 37°32' W 000°60'415.3
2017-May-14 03:30N 37°29' W 000°56'817.1
2017-May-14 03:00N 37°29' W 000°46'915.4
2017-May-14 02:24N 37°29' W 000°34'513.3
2017-May-14 02:00N 37°30' W 000°27'1013.5
2017-May-14 01:16N 37°31' W 000°15'17213.4
2017-May-13 12:21N 37°59' E 003°20'613.5
2017-May-13 11:57N 38°00' E 003°27'613.4
2017-May-13 11:30N 38°01' E 003°35'713.4
2017-May-13 11:00N 38°02' E 003°43'713.3
2017-May-13 10:30N 38°03' E 003°51'  

Dump ship's entire track history